sensor_id;sensor_type;location;lat;lon;timestamp;pressure;altitude;pressure_sealevel;temperature;humidity
76637;BME280;65532;52.124;5.480;2023-04-25T00:00:48;101044.72;;;4.63;41.31
76637;BME280;65532;52.124;5.480;2023-04-25T00:03:15;101043.78;;;4.56;41.44
76637;BME280;65532;52.124;5.480;2023-04-25T00:05:42;101057.31;;;4.47;40.33
76637;BME280;65532;52.124;5.480;2023-04-25T00:08:09;101055.91;;;4.37;36.43
76637;BME280;65532;52.124;5.480;2023-04-25T00:10:36;101055.84;;;4.30;35.00
76637;BME280;65532;52.124;5.480;2023-04-25T00:13:02;101067.66;;;4.21;34.16
76637;BME280;65532;52.124;5.480;2023-04-25T00:15:29;101065.91;;;4.13;34.18
76637;BME280;65532;52.124;5.480;2023-04-25T00:17:58;101083.44;;;4.16;30.43
76637;BME280;65532;52.124;5.480;2023-04-25T00:20:24;101064.31;;;4.19;27.34
76637;BME280;65532;52.124;5.480;2023-04-25T00:22:51;101074.03;;;4.20;25.21
76637;BME280;65532;52.124;5.480;2023-04-25T00:25:19;101076.34;;;4.23;21.53
76637;BME280;65532;52.124;5.480;2023-04-25T00:27:46;101071.09;;;4.30;18.85
76637;BME280;65532;52.124;5.480;2023-04-25T00:30:13;101077.28;;;4.30;16.91
76637;BME280;65532;52.124;5.480;2023-04-25T00:32:39;101067.00;;;4.34;16.64
76637;BME280;65532;52.124;5.480;2023-04-25T00:35:06;101079.22;;;4.36;14.86
76637;BME280;65532;52.124;5.480;2023-04-25T00:37:32;101083.16;;;4.40;13.26
76637;BME280;65532;52.124;5.480;2023-04-25T00:39:59;101073.78;;;4.44;12.21
76637;BME280;65532;52.124;5.480;2023-04-25T00:42:25;101081.25;;;4.49;11.98
76637;BME280;65532;52.124;5.480;2023-04-25T00:44:52;101074.88;;;4.50;13.09
76637;BME280;65532;52.124;5.480;2023-04-25T00:47:19;101081.25;;;4.49;14.24
76637;BME280;65532;52.124;5.480;2023-04-25T00:49:46;101081.06;;;4.50;14.96
76637;BME280;65532;52.124;5.480;2023-04-25T00:52:12;101083.75;;;4.50;16.92
76637;BME280;65532;52.124;5.480;2023-04-25T00:54:39;101083.38;;;4.54;17.53
76637;BME280;65532;52.124;5.480;2023-04-25T00:57:06;101073.47;;;4.54;18.19
76637;BME280;65532;52.124;5.480;2023-04-25T00:59:33;101081.13;;;4.57;19.02
76637;BME280;65532;52.124;5.480;2023-04-25T01:02:00;101078.09;;;4.60;20.88
76637;BME280;65532;52.124;5.480;2023-04-25T01:04:27;101075.63;;;4.59;22.86
76637;BME280;65532;52.124;5.480;2023-04-25T01:06:54;101082.00;;;4.58;25.61
76637;BME280;65532;52.124;5.480;2023-04-25T01:09:22;101074.94;;;4.57;27.99
76637;BME280;65532;52.124;5.480;2023-04-25T01:11:49;101083.16;;;4.55;28.95
76637;BME280;65532;52.124;5.480;2023-04-25T01:14:16;101082.34;;;4.55;30.75
76637;BME280;65532;52.124;5.480;2023-04-25T01:16:43;101082.72;;;4.51;33.34
76637;BME280;65532;52.124;5.480;2023-04-25T01:19:11;101087.44;;;4.49;33.76
76637;BME280;65532;52.124;5.480;2023-04-25T01:21:38;101091.13;;;4.48;34.52
76637;BME280;65532;52.124;5.480;2023-04-25T01:24:06;101092.34;;;4.46;36.26
76637;BME280;65532;52.124;5.480;2023-04-25T01:26:33;101092.53;;;4.44;36.75
76637;BME280;65532;52.124;5.480;2023-04-25T01:29:00;101096.75;;;4.39;38.44
76637;BME280;65532;52.124;5.480;2023-04-25T01:31:27;101104.34;;;4.35;40.01
76637;BME280;65532;52.124;5.480;2023-04-25T01:33:54;101096.69;;;4.32;40.71
76637;BME280;65532;52.124;5.480;2023-04-25T01:36:21;101107.28;;;4.26;42.09
76637;BME280;65532;52.124;5.480;2023-04-25T01:38:48;101104.16;;;4.22;43.12
76637;BME280;65532;52.124;5.480;2023-04-25T01:41:15;101111.91;;;4.17;44.71
76637;BME280;65532;52.124;5.480;2023-04-25T01:43:43;101115.34;;;4.11;45.76
76637;BME280;65532;52.124;5.480;2023-04-25T01:46:11;101111.31;;;4.07;46.01
76637;BME280;65532;52.124;5.480;2023-04-25T01:48:38;101106.91;;;3.99;48.31
76637;BME280;65532;52.124;5.480;2023-04-25T01:51:05;101119.81;;;3.96;48.55
76637;BME280;65532;52.124;5.480;2023-04-25T01:53:32;101112.50;;;3.89;50.40
76637;BME280;65532;52.124;5.480;2023-04-25T01:56:01;101107.50;;;3.86;50.91
76637;BME280;65532;52.124;5.480;2023-04-25T01:58:32;101122.28;;;3.82;50.75
76637;BME280;65532;52.124;5.480;2023-04-25T02:01:06;101125.97;;;3.81;49.13
76637;BME280;65532;52.124;5.480;2023-04-25T02:03:40;101125.31;;;3.79;49.01
76637;BME280;65532;52.124;5.480;2023-04-25T02:06:15;101127.31;;;3.77;48.23
76637;BME280;65532;52.124;5.480;2023-04-25T02:08:44;101141.44;;;3.71;47.83
76637;BME280;65532;52.124;5.480;2023-04-25T02:11:12;101135.78;;;3.66;47.79
76637;BME280;65532;52.124;5.480;2023-04-25T02:13:44;101132.47;;;3.64;47.55
76637;BME280;65532;52.124;5.480;2023-04-25T02:16:31;101137.50;;;3.59;48.26
76637;BME280;65532;52.124;5.480;2023-04-25T02:18:59;101134.53;;;3.54;47.90
76637;BME280;65532;52.124;5.480;2023-04-25T02:21:26;101137.75;;;3.49;48.79
76637;BME280;65532;52.124;5.480;2023-04-25T02:23:53;101132.25;;;3.43;49.59
76637;BME280;65532;52.124;5.480;2023-04-25T02:26:20;101135.00;;;3.35;48.99
76637;BME280;65532;52.124;5.480;2023-04-25T02:28:47;101130.34;;;3.28;47.99
76637;BME280;65532;52.124;5.480;2023-04-25T02:31:14;101135.69;;;3.28;46.99
76637;BME280;65532;52.124;5.480;2023-04-25T02:33:41;101129.41;;;3.21;46.46
76637;BME280;65532;52.124;5.480;2023-04-25T02:36:07;101127.25;;;3.17;46.00
76637;BME280;65532;52.124;5.480;2023-04-25T02:38:34;101134.13;;;3.11;45.83
76637;BME280;65532;52.124;5.480;2023-04-25T02:41:02;101139.16;;;3.06;45.11
76637;BME280;65532;52.124;5.480;2023-04-25T02:43:28;101138.16;;;3.07;43.32
76637;BME280;65532;52.124;5.480;2023-04-25T02:45:55;101135.84;;;3.04;42.03
76637;BME280;65532;52.124;5.480;2023-04-25T02:48:22;101142.19;;;3.03;40.65
76637;BME280;65532;52.124;5.480;2023-04-25T02:50:48;101135.84;;;3.04;38.81
76637;BME280;65532;52.124;5.480;2023-04-25T02:53:14;101138.50;;;3.04;37.00
76637;BME280;65532;52.124;5.480;2023-04-25T02:55:46;101141.38;;;3.03;37.38
76637;BME280;65532;52.124;5.480;2023-04-25T02:58:12;101134.19;;;3.03;35.82
76637;BME280;65532;52.124;5.480;2023-04-25T03:00:45;101133.16;;;3.04;34.50
76637;BME280;65532;52.124;5.480;2023-04-25T03:03:12;101138.16;;;3.07;33.45
76637;BME280;65532;52.124;5.480;2023-04-25T03:05:38;101143.16;;;3.10;32.84
76637;BME280;65532;52.124;5.480;2023-04-25T03:08:05;101144.81;;;3.11;31.66
76637;BME280;65532;52.124;5.480;2023-04-25T03:10:33;101140.78;;;3.15;31.57
76637;BME280;65532;52.124;5.480;2023-04-25T03:13:03;101146.63;;;3.19;32.18
76637;BME280;65532;52.124;5.480;2023-04-25T03:15:29;101142.13;;;3.19;32.45
76637;BME280;65532;52.124;5.480;2023-04-25T03:17:57;101142.13;;;3.19;33.02
76637;BME280;65532;52.124;5.480;2023-04-25T03:20:24;101153.00;;;3.18;32.72
76637;BME280;65532;52.124;5.480;2023-04-25T03:22:51;101144.13;;;3.17;33.37
76637;BME280;65532;52.124;5.480;2023-04-25T03:25:17;101147.81;;;3.16;32.32
76637;BME280;65532;52.124;5.480;2023-04-25T03:27:44;101157.00;;;3.14;32.22
76637;BME280;65532;52.124;5.480;2023-04-25T03:30:11;101158.84;;;3.13;31.82
76637;BME280;65532;52.124;5.480;2023-04-25T03:32:39;101163.53;;;3.11;31.01
76637;BME280;65532;52.124;5.480;2023-04-25T03:35:06;101164.53;;;3.10;30.99
76637;BME280;65532;52.124;5.480;2023-04-25T03:37:33;101171.56;;;3.11;30.68
76637;BME280;65532;52.124;5.480;2023-04-25T03:40:00;101168.88;;;3.11;31.00
76637;BME280;65532;52.124;5.480;2023-04-25T03:42:41;101166.22;;;3.11;29.89
76637;BME280;65532;52.124;5.480;2023-04-25T03:45:10;101166.03;;;3.13;29.23
76637;BME280;65532;52.124;5.480;2023-04-25T03:47:37;101170.88;;;3.17;29.06
76637;BME280;65532;52.124;5.480;2023-04-25T03:50:04;101171.38;;;3.21;28.15
76637;BME280;65532;52.124;5.480;2023-04-25T03:52:31;101173.50;;;3.25;27.82
76637;BME280;65532;52.124;5.480;2023-04-25T03:54:57;101171.31;;;3.29;27.10
76637;BME280;65532;52.124;5.480;2023-04-25T03:57:24;101178.16;;;3.32;27.54
76637;BME280;65532;52.124;5.480;2023-04-25T03:59:52;101180.50;;;3.35;28.02
76637;BME280;65532;52.124;5.480;2023-04-25T04:02:18;101179.94;;;3.39;27.99
76637;BME280;65532;52.124;5.480;2023-04-25T04:04:45;101178.75;;;3.42;28.68
76637;BME280;65532;52.124;5.480;2023-04-25T04:07:13;101173.88;;;3.45;29.82
76637;BME280;65532;52.124;5.480;2023-04-25T04:09:42;101182.25;;;3.50;30.64
76637;BME280;65532;52.124;5.480;2023-04-25T04:12:14;101186.41;;;3.53;31.14
76637;BME280;65532;52.124;5.480;2023-04-25T04:14:41;101186.88;;;3.56;32.35
76637;BME280;65532;52.124;5.480;2023-04-25T04:17:08;101190.69;;;3.62;33.35
76637;BME280;65532;52.124;5.480;2023-04-25T04:19:35;101191.00;;;3.67;35.76
76637;BME280;65532;52.124;5.480;2023-04-25T04:22:07;101192.31;;;3.71;37.56
76637;BME280;65532;52.124;5.480;2023-04-25T04:24:34;101197.94;;;3.76;40.84
76637;BME280;65532;52.124;5.480;2023-04-25T04:27:04;101199.28;;;3.80;43.22
76637;BME280;65532;52.124;5.480;2023-04-25T04:29:43;101192.38;;;3.86;46.99
76637;BME280;65532;52.124;5.480;2023-04-25T04:32:15;101191.81;;;3.90;49.40
76637;BME280;65532;52.124;5.480;2023-04-25T04:34:42;101187.78;;;3.95;52.04
76637;BME280;65532;52.124;5.480;2023-04-25T04:37:10;101199.81;;;3.99;53.68
76637;BME280;65532;52.124;5.480;2023-04-25T04:39:40;101201.94;;;4.03;55.95
76637;BME280;65532;52.124;5.480;2023-04-25T04:42:20;101210.25;;;4.08;58.05
76637;BME280;65532;52.124;5.480;2023-04-25T04:45:11;101211.78;;;4.11;61.31
76637;BME280;65532;52.124;5.480;2023-04-25T04:48:05;101214.09;;;4.14;64.40
76637;BME280;65532;52.124;5.480;2023-04-25T04:50:36;101222.78;;;4.16;68.57
76637;BME280;65532;52.124;5.480;2023-04-25T04:53:05;101220.75;;;4.18;71.82
76637;BME280;65532;52.124;5.480;2023-04-25T04:55:41;101226.38;;;4.23;76.27
76637;BME280;65532;52.124;5.480;2023-04-25T04:58:31;101226.06;;;4.26;77.90
76637;BME280;65532;52.124;5.480;2023-04-25T05:01:17;101229.84;;;4.32;79.81
76637;BME280;65532;52.124;5.480;2023-04-25T05:03:56;101234.84;;;4.35;81.73
76637;BME280;65532;52.124;5.480;2023-04-25T05:06:44;101240.28;;;4.41;83.61
76637;BME280;65532;52.124;5.480;2023-04-25T05:09:14;101240.78;;;4.45;84.49
76637;BME280;65532;52.124;5.480;2023-04-25T05:11:53;101237.56;;;4.49;85.36
76637;BME280;65532;52.124;5.480;2023-04-25T05:14:35;101244.22;;;4.54;86.24
76637;BME280;65532;52.124;5.480;2023-04-25T05:17:07;101244.69;;;4.57;86.85
76637;BME280;65532;52.124;5.480;2023-04-25T05:19:40;101254.69;;;4.63;87.08
76637;BME280;65532;52.124;5.480;2023-04-25T05:22:16;101257.84;;;4.67;87.26
76637;BME280;65532;52.124;5.480;2023-04-25T05:25:05;101257.28;;;4.71;87.61
76637;BME280;65532;52.124;5.480;2023-04-25T05:27:48;101264.81;;;4.76;87.20
76637;BME280;65532;52.124;5.480;2023-04-25T05:30:41;101272.09;;;4.82;87.52
76637;BME280;65532;52.124;5.480;2023-04-25T05:33:20;101266.38;;;4.85;87.92
76637;BME280;65532;52.124;5.480;2023-04-25T05:35:47;101269.50;;;4.89;87.63
76637;BME280;65532;52.124;5.480;2023-04-25T05:38:13;101277.22;;;4.92;88.15
76637;BME280;65532;52.124;5.480;2023-04-25T05:40:58;101282.66;;;4.98;88.75
76637;BME280;65532;52.124;5.480;2023-04-25T05:43:47;101274.06;;;5.03;89.37
76637;BME280;65532;52.124;5.480;2023-04-25T05:46:39;101271.50;;;5.09;89.22
76637;BME280;65532;52.124;5.480;2023-04-25T05:49:14;101269.72;;;5.17;89.25
76637;BME280;65532;52.124;5.480;2023-04-25T05:51:58;101277.50;;;5.26;89.02
76637;BME280;65532;52.124;5.480;2023-04-25T05:54:40;101280.91;;;5.35;89.42
76637;BME280;65532;52.124;5.480;2023-04-25T05:57:07;101277.31;;;5.43;89.88
76637;BME280;65532;52.124;5.480;2023-04-25T05:59:33;101284.41;;;5.50;90.32
76637;BME280;65532;52.124;5.480;2023-04-25T06:02:00;101287.00;;;5.58;90.38
76637;BME280;65532;52.124;5.480;2023-04-25T06:04:29;101285.41;;;5.64;90.36
76637;BME280;65532;52.124;5.480;2023-04-25T06:06:55;101293.94;;;5.67;91.18
76637;BME280;65532;52.124;5.480;2023-04-25T06:09:22;101295.69;;;5.75;91.70
76637;BME280;65532;52.124;5.480;2023-04-25T06:11:48;101303.81;;;5.82;91.75
76637;BME280;65532;52.124;5.480;2023-04-25T06:14:15;101308.09;;;5.91;91.95
76637;BME280;65532;52.124;5.480;2023-04-25T06:16:46;101310.31;;;6.02;92.14
76637;BME280;65532;52.124;5.480;2023-04-25T06:19:13;101318.16;;;6.04;92.22
76637;BME280;65532;52.124;5.480;2023-04-25T06:21:39;101319.50;;;6.14;92.66
76637;BME280;65532;52.124;5.480;2023-04-25T06:24:07;101309.81;;;6.35;92.53
76637;BME280;65532;52.124;5.480;2023-04-25T06:26:33;101315.78;;;6.51;92.80
76637;BME280;65532;52.124;5.480;2023-04-25T06:29:00;101317.22;;;6.75;92.66
76637;BME280;65532;52.124;5.480;2023-04-25T06:31:26;101309.94;;;6.97;92.65
76637;BME280;65532;52.124;5.480;2023-04-25T06:33:54;101314.19;;;7.13;92.55
76637;BME280;65532;52.124;5.480;2023-04-25T06:36:23;101319.69;;;7.33;91.95
76637;BME280;65532;52.124;5.480;2023-04-25T06:38:54;101313.78;;;7.50;91.83
76637;BME280;65532;52.124;5.480;2023-04-25T06:41:23;101318.38;;;7.57;91.40
76637;BME280;65532;52.124;5.480;2023-04-25T06:43:49;101325.19;;;7.53;90.51
76637;BME280;65532;52.124;5.480;2023-04-25T06:46:31;101326.44;;;7.50;90.21
76637;BME280;65532;52.124;5.480;2023-04-25T06:48:58;101332.66;;;7.57;89.42
76637;BME280;65532;52.124;5.480;2023-04-25T06:51:25;101328.91;;;7.51;89.88
76637;BME280;65532;52.124;5.480;2023-04-25T06:53:54;101327.22;;;7.44;89.17
76637;BME280;65532;52.124;5.480;2023-04-25T06:56:28;101335.50;;;7.42;89.59
76637;BME280;65532;52.124;5.480;2023-04-25T06:59:01;101343.63;;;7.49;89.66
76637;BME280;65532;52.124;5.480;2023-04-25T07:01:34;101338.50;;;7.61;89.59
76637;BME280;65532;52.124;5.480;2023-04-25T07:04:04;101344.34;;;7.71;89.12
76637;BME280;65532;52.124;5.480;2023-04-25T07:06:33;101347.72;;;7.79;89.48
76637;BME280;65532;52.124;5.480;2023-04-25T07:09:00;101349.03;;;7.90;87.99
76637;BME280;65532;52.124;5.480;2023-04-25T07:11:27;101353.19;;;7.93;88.18
76637;BME280;65532;52.124;5.480;2023-04-25T07:13:55;101351.94;;;7.95;88.29
76637;BME280;65532;52.124;5.480;2023-04-25T07:16:21;101349.47;;;8.00;87.48
76637;BME280;65532;52.124;5.480;2023-04-25T07:18:48;101354.63;;;7.95;87.01
76637;BME280;65532;52.124;5.480;2023-04-25T07:21:15;101357.44;;;8.22;87.04
76637;BME280;65532;52.124;5.480;2023-04-25T07:23:43;101357.16;;;8.71;86.01
76637;BME280;65532;52.124;5.480;2023-04-25T07:26:14;101364.00;;;9.13;84.49
76637;BME280;65532;52.124;5.480;2023-04-25T07:29:01;101364.97;;;10.23;83.72
76637;BME280;65532;52.124;5.480;2023-04-25T07:31:27;101365.41;;;11.33;79.25
76637;BME280;65532;52.124;5.480;2023-04-25T07:33:54;101375.47;;;11.07;70.22
76637;BME280;65532;52.124;5.480;2023-04-25T07:36:20;101369.63;;;11.04;72.23
76637;BME280;65532;52.124;5.480;2023-04-25T07:38:47;101371.06;;;11.31;70.76
76637;BME280;65532;52.124;5.480;2023-04-25T07:41:15;101379.59;;;10.54;69.36
76637;BME280;65532;52.124;5.480;2023-04-25T07:43:41;101379.34;;;10.17;72.26
76637;BME280;65532;52.124;5.480;2023-04-25T07:46:08;101379.91;;;9.74;74.50
76637;BME280;65532;52.124;5.480;2023-04-25T07:48:35;101386.63;;;9.45;75.30
76637;BME280;65532;52.124;5.480;2023-04-25T07:51:01;101393.31;;;9.23;75.30
76637;BME280;65532;52.124;5.480;2023-04-25T07:53:29;101393.69;;;9.53;75.87
76637;BME280;65532;52.124;5.480;2023-04-25T07:56:00;101394.09;;;9.56;77.31
76637;BME280;65532;52.124;5.480;2023-04-25T07:58:30;101404.91;;;9.63;77.42
76637;BME280;65532;52.124;5.480;2023-04-25T08:00:59;101411.56;;;9.54;76.01
76637;BME280;65532;52.124;5.480;2023-04-25T08:03:28;101407.84;;;9.42;74.91
76637;BME280;65532;52.124;5.480;2023-04-25T08:05:56;101409.28;;;9.38;75.85
76637;BME280;65532;52.124;5.480;2023-04-25T08:08:26;101417.78;;;9.61;74.32
76637;BME280;65532;52.124;5.480;2023-04-25T08:10:52;101424.00;;;9.61;73.77
76637;BME280;65532;52.124;5.480;2023-04-25T08:13:19;101423.00;;;9.63;70.98
76637;BME280;65532;52.124;5.480;2023-04-25T08:15:45;101418.63;;;9.55;71.27
76637;BME280;65532;52.124;5.480;2023-04-25T08:18:12;101424.78;;;9.95;72.72
76637;BME280;65532;52.124;5.480;2023-04-25T08:20:42;101419.69;;;10.70;71.23
76637;BME280;65532;52.124;5.480;2023-04-25T08:23:10;101425.94;;;11.27;70.27
76637;BME280;65532;52.124;5.480;2023-04-25T08:26:00;101426.56;;;12.15;67.32
76637;BME280;65532;52.124;5.480;2023-04-25T08:28:27;101447.84;;;11.25;66.45
76637;BME280;65532;52.124;5.480;2023-04-25T08:30:57;101448.91;;;9.90;69.73
76637;BME280;65532;52.124;5.480;2023-04-25T08:33:29;101455.66;;;9.21;70.63
76637;BME280;65532;52.124;5.480;2023-04-25T08:36:08;101455.19;;;8.98;72.11
76637;BME280;65532;52.124;5.480;2023-04-25T08:38:35;101459.31;;;8.74;72.18
76637;BME280;65532;52.124;5.480;2023-04-25T08:41:04;101460.97;;;8.68;73.70
76637;BME280;65532;52.124;5.480;2023-04-25T08:43:34;101461.63;;;8.84;74.29
76637;BME280;65532;52.124;5.480;2023-04-25T08:46:01;101460.81;;;8.90;71.99
76637;BME280;65532;52.124;5.480;2023-04-25T08:48:48;101472.66;;;8.95;72.86
76637;BME280;65532;52.124;5.480;2023-04-25T08:51:25;101471.84;;;9.21;73.48
76637;BME280;65532;52.124;5.480;2023-04-25T08:53:56;101473.09;;;9.45;72.67
76637;BME280;65532;52.124;5.480;2023-04-25T08:56:27;101478.50;;;9.58;71.95
76637;BME280;65532;52.124;5.480;2023-04-25T08:58:56;101478.50;;;9.78;71.52
76637;BME280;65532;52.124;5.480;2023-04-25T09:01:23;101488.00;;;10.07;70.83
76637;BME280;65532;52.124;5.480;2023-04-25T09:03:52;101488.81;;;10.28;70.40
76637;BME280;65532;52.124;5.480;2023-04-25T09:06:19;101499.22;;;10.17;68.36
76637;BME280;65532;52.124;5.480;2023-04-25T09:08:50;101506.31;;;10.12;69.19
76637;BME280;65532;52.124;5.480;2023-04-25T09:11:17;101499.56;;;10.47;69.57
76637;BME280;65532;52.124;5.480;2023-04-25T09:13:46;101506.66;;;10.87;68.10
76637;BME280;65532;52.124;5.480;2023-04-25T09:16:25;101502.97;;;11.13;66.14
76637;BME280;65532;52.124;5.480;2023-04-25T09:19:21;101504.72;;;11.32;66.19
76637;BME280;65532;52.124;5.480;2023-04-25T09:22:04;101509.53;;;11.30;62.54
76637;BME280;65532;52.124;5.480;2023-04-25T09:24:38;101509.78;;;11.53;63.56
76637;BME280;65532;52.124;5.480;2023-04-25T09:27:29;101509.06;;;11.64;64.32
76637;BME280;65532;52.124;5.480;2023-04-25T09:30:03;101510.59;;;11.29;64.32
76637;BME280;65532;52.124;5.480;2023-04-25T09:32:46;101521.25;;;10.86;62.68
76637;BME280;65532;52.124;5.480;2023-04-25T09:35:24;101524.84;;;10.73;61.39
76637;BME280;65532;52.124;5.480;2023-04-25T09:37:52;101530.06;;;10.81;61.00
76637;BME280;65532;52.124;5.480;2023-04-25T09:40:42;101522.31;;;10.85;61.34
76637;BME280;65532;52.124;5.480;2023-04-25T09:43:22;101534.13;;;10.59;63.86
76637;BME280;65532;52.124;5.480;2023-04-25T09:45:51;101535.81;;;10.46;63.02
76637;BME280;65532;52.124;5.480;2023-04-25T09:48:24;101543.59;;;9.57;63.94
76637;BME280;65532;52.124;5.480;2023-04-25T09:51:13;101547.09;;;9.18;68.04
76637;BME280;65532;52.124;5.480;2023-04-25T09:53:44;101562.84;;;9.01;69.34
76637;BME280;65532;52.124;5.480;2023-04-25T09:56:19;101564.88;;;8.51;70.20
76637;BME280;65532;52.124;5.480;2023-04-25T09:58:48;101562.06;;;8.31;70.54
76637;BME280;65532;52.124;5.480;2023-04-25T10:01:18;101575.34;;;8.33;72.32
76637;BME280;65532;52.124;5.480;2023-04-25T10:04:00;101580.06;;;8.52;72.26
76637;BME280;65532;52.124;5.480;2023-04-25T10:06:39;101583.28;;;8.76;71.30
76637;BME280;65532;52.124;5.480;2023-04-25T10:09:10;101582.31;;;8.96;70.06
76637;BME280;65532;52.124;5.480;2023-04-25T10:11:39;101582.78;;;9.07;67.77
76637;BME280;65532;52.124;5.480;2023-04-25T10:14:06;101583.03;;;9.18;66.76
76637;BME280;65532;52.124;5.480;2023-04-25T10:16:33;101575.81;;;9.39;67.82
76637;BME280;65532;52.124;5.480;2023-04-25T10:18:59;101575.44;;;9.81;66.83
76637;BME280;65532;52.124;5.480;2023-04-25T10:21:28;101579.34;;;10.38;67.29
76637;BME280;65532;52.124;5.480;2023-04-25T10:23:57;101578.53;;;10.18;66.08
76637;BME280;65532;52.124;5.480;2023-04-25T10:26:24;101573.34;;;10.03;63.55
76637;BME280;65532;52.124;5.480;2023-04-25T10:28:59;101584.38;;;10.28;64.39
76637;BME280;65532;52.124;5.480;2023-04-25T10:31:25;101579.16;;;10.20;62.46
76637;BME280;65532;52.124;5.480;2023-04-25T10:33:53;101574.56;;;10.20;62.96
76637;BME280;65532;52.124;5.480;2023-04-25T10:36:23;101575.78;;;10.58;63.19
76637;BME280;65532;52.124;5.480;2023-04-25T10:38:51;101574.44;;;10.80;62.14
76637;BME280;65532;52.124;5.480;2023-04-25T10:41:19;101577.03;;;11.06;62.63
76637;BME280;65532;52.124;5.480;2023-04-25T10:43:47;101575.09;;;11.14;60.73
76637;BME280;65532;52.124;5.480;2023-04-25T10:48:46;101571.19;;;11.41;59.71
76637;BME280;65532;52.124;5.480;2023-04-25T10:51:33;101574.75;;;11.35;58.56
76637;BME280;65532;52.124;5.480;2023-04-25T10:54:21;101576.31;;;11.18;58.30
76637;BME280;65532;52.124;5.480;2023-04-25T10:56:48;101584.97;;;11.39;58.25
76637;BME280;65532;52.124;5.480;2023-04-25T10:59:18;101572.88;;;11.67;59.13
76637;BME280;65532;52.124;5.480;2023-04-25T11:01:51;101579.66;;;11.83;59.11
76637;BME280;65532;52.124;5.480;2023-04-25T11:04:28;101576.84;;;11.71;57.88
76637;BME280;65532;52.124;5.480;2023-04-25T11:09:39;101577.91;;;11.38;57.84
76637;BME280;65532;52.124;5.480;2023-04-25T11:12:09;101577.06;;;11.38;55.87
76637;BME280;65532;52.124;5.480;2023-04-25T11:14:38;101580.25;;;10.84;58.64
76637;BME280;65532;52.124;5.480;2023-04-25T11:17:06;101587.97;;;10.80;59.17
76637;BME280;65532;52.124;5.480;2023-04-25T11:19:32;101598.28;;;10.38;60.67
76637;BME280;65532;52.124;5.480;2023-04-25T11:22:00;101609.91;;;9.40;62.88
76637;BME280;65532;52.124;5.480;2023-04-25T11:24:31;101618.47;;;8.95;66.07
76637;BME280;65532;52.124;5.480;2023-04-25T11:26:58;101618.31;;;8.62;68.27
76637;BME280;65532;52.124;5.480;2023-04-25T11:29:31;101628.81;;;8.23;70.24
76637;BME280;65532;52.124;5.480;2023-04-25T11:31:58;101625.88;;;7.90;72.30
76637;BME280;65532;52.124;5.480;2023-04-25T11:34:27;101636.19;;;7.65;73.06
76637;BME280;65532;52.124;5.480;2023-04-25T11:36:56;101638.13;;;7.49;73.86
76637;BME280;65532;52.124;5.480;2023-04-25T11:39:24;101633.59;;;7.35;75.88
76637;BME280;65532;52.124;5.480;2023-04-25T11:41:52;101633.97;;;7.11;78.87
76637;BME280;65532;52.124;5.480;2023-04-25T11:44:19;101631.66;;;6.93;81.52
76637;BME280;65532;52.124;5.480;2023-04-25T11:46:46;101638.25;;;6.90;81.19
76637;BME280;65532;52.124;5.480;2023-04-25T11:49:13;101635.66;;;6.82;81.81
76637;BME280;65532;52.124;5.480;2023-04-25T11:51:40;101637.81;;;7.23;82.47
76637;BME280;65532;52.124;5.480;2023-04-25T11:54:07;101640.13;;;7.62;78.66
76637;BME280;65532;52.124;5.480;2023-04-25T11:56:34;101632.09;;;7.90;78.00
76637;BME280;65532;52.124;5.480;2023-04-25T11:59:05;101638.44;;;8.32;77.71
76637;BME280;65532;52.124;5.480;2023-04-25T12:01:35;101631.56;;;8.92;77.11
76637;BME280;65532;52.124;5.480;2023-04-25T12:06:43;101628.91;;;9.99;74.37
76637;BME280;65532;52.124;5.480;2023-04-25T12:09:11;101631.00;;;10.30;72.32
76637;BME280;65532;52.124;5.480;2023-04-25T12:11:53;101628.25;;;10.63;70.62
76637;BME280;65532;52.124;5.480;2023-04-25T12:14:25;101625.28;;;10.78;66.35
76637;BME280;65532;52.124;5.480;2023-04-25T12:16:57;101623.81;;;10.82;67.34
76637;BME280;65532;52.124;5.480;2023-04-25T12:19:25;101625.66;;;10.95;65.63
76637;BME280;65532;52.124;5.480;2023-04-25T12:21:52;101624.81;;;10.88;64.09
76637;BME280;65532;52.124;5.480;2023-04-25T12:24:26;101631.13;;;10.75;65.02
76637;BME280;65532;52.124;5.480;2023-04-25T12:27:04;101647.59;;;10.73;65.29
76637;BME280;65532;52.124;5.480;2023-04-25T12:29:32;101635.47;;;10.89;63.95
76637;BME280;65532;52.124;5.480;2023-04-25T12:32:13;101640.88;;;10.89;62.96
76637;BME280;65532;52.124;5.480;2023-04-25T12:34:40;101639.94;;;10.50;62.73
76637;BME280;65532;52.124;5.480;2023-04-25T12:37:06;101643.25;;;10.19;62.39
76637;BME280;65532;52.124;5.480;2023-04-25T12:39:33;101643.47;;;10.05;62.68
76637;BME280;65532;52.124;5.480;2023-04-25T12:41:59;101643.47;;;10.11;63.92
76637;BME280;65532;52.124;5.480;2023-04-25T12:44:27;101645.91;;;10.79;64.10
76637;BME280;65532;52.124;5.480;2023-04-25T12:46:53;101646.84;;;11.04;62.34
76637;BME280;65532;52.124;5.480;2023-04-25T12:49:21;101638.44;;;11.26;61.13
76637;BME280;65532;52.124;5.480;2023-04-25T12:51:48;101640.38;;;11.50;60.62
76637;BME280;65532;52.124;5.480;2023-04-25T12:54:14;101645.72;;;11.63;60.33
76637;BME280;65532;52.124;5.480;2023-04-25T12:56:41;101643.53;;;11.85;59.41
76637;BME280;65532;52.124;5.480;2023-04-25T12:59:08;101645.53;;;11.96;58.86
76637;BME280;65532;52.124;5.480;2023-04-25T13:01:35;101640.69;;;11.67;57.58
76637;BME280;65532;52.124;5.480;2023-04-25T13:04:02;101644.13;;;11.49;57.18
76637;BME280;65532;52.124;5.480;2023-04-25T13:06:29;101639.75;;;11.55;55.49
76637;BME280;65532;52.124;5.480;2023-04-25T13:08:57;101646.06;;;11.42;57.08
76637;BME280;65532;52.124;5.480;2023-04-25T13:11:23;101630.19;;;11.84;57.33
76637;BME280;65532;52.124;5.480;2023-04-25T13:13:49;101629.78;;;12.30;55.01
76637;BME280;65532;52.124;5.480;2023-04-25T13:16:16;101640.56;;;12.18;53.39
76637;BME280;65532;52.124;5.480;2023-04-25T13:18:43;101641.47;;;11.81;52.63
76637;BME280;65532;52.124;5.480;2023-04-25T13:21:10;101641.50;;;11.67;53.65